NCAR-RAP Real-Time Weather Data

Output produced by METARs form (08 May 2021  01:54 UTC)
found at http://weather.rap.ucar.edu/surface/
 
KSRQ 080053Z 34008KT 10SM CLR 23/09 A3001 RMK AO2 SLP161 T02330094
KSRQ 072353Z 33011KT 10SM CLR 24/10 A3000 RMK AO2 SLP157 T02440100 10300 20244 53005
KSRQ 072253Z 34011G19KT 10SM CLR 26/09 A2999 RMK AO2 SLP154 T02610089
KSRQ 072153Z 33011G20KT 10SM CLR 27/10 A2999 RMK AO2 SLP153 T02720100
KSRQ 072053Z 33014G19KT 10SM CLR 28/09 A2998 RMK AO2 SLP152 T02830089 58014
KSRQ 071953Z 32018G22KT 10SM CLR 29/10 A3000 RMK AO2 SLP156 T02890100
KSRQ 071853Z 32010G19KT 10SM CLR 29/11 A3001 RMK AO2 SLP162 T02940106
KSRQ 071753Z 36009G17KT 10SM CLR 30/12 A3002 RMK AO2 SLP166 T03000117 10300 20250 58007
KSRQ 071653Z 34011G14KT 10SM CLR 28/13 A3004 RMK AO2 SLP172 T02830128
KSRQ 071553Z 36011G18KT 10SM CLR 28/13 A3005 RMK AO2 SLP176 T02780133
KSRQ 071453Z 02007KT 10SM CLR 27/14 A3005 RMK AO2 SLP173 T02720139 51012
KSRQ 071353Z 01015KT 10SM FEW035 26/13 A3003 RMK AO2 SLP170 T02610128
KSRQ 071253Z 01011KT 10SM FEW028 SCT037 26/14 A3003 RMK AO2 SLP166 T02560144
KSRQ 071153Z 34006KT 10SM FEW025 25/19 A3001 RMK AO2 SLP162 T02500194 10250 20233 53014
KSRQ 071053Z 34004KT 10SM SCT024 SCT031 BKN039 24/20 A2999 RMK AO2 SLP155 T02390200
KSRQ 070958Z 33006KT 10SM FEW024 24/20 A2998 RMK AO2 SLP150 T02390200